Time;durP1;ratioP1;P1;durP2;ratioP2;P2;SDS_P1;SDS_P2;PMS_P1;PMS_P2;Temp;Humidity;BMP_temperature;BMP_pressure;BME280_temperature;BME280_humidity;BME280_pressure;Samples;Min_cycle;Max_cycle;Signal;HPM_P1;HPM_P2
2022/08/11 00:00:49;;;;;;;424.67;244.47;;;;;;;;;;5044748;28;20541;-67
2022/08/11 00:03:16;;;;;;;416.43;242.13;;;;;;;;;;5043514;28;20360;-67
2022/08/11 00:05:50;;;;;;;422.37;241.83;;;;;;;;;;5046195;28;20321;-68
2022/08/11 00:08:23;;;;;;;378.90;209.83;;;;;;;;;;5044236;28;20215;-67
2022/08/11 00:10:59;;;;;;;407.47;223.10;;;;;;;;;;5038903;28;20273;-67
2022/08/11 00:13:35;;;;;;;382.77;212.07;;;;;;;;;;5040879;28;20212;-67
2022/08/11 00:16:02;;;;;;;407.80;233.43;;;;;;;;;;5040759;28;20195;-67
2022/08/11 00:18:30;;;;;;;393.40;221.93;;;;;;;;;;5039583;28;20211;-67
2022/08/11 00:20:59;;;;;;;409.10;237.23;;;;;;;;;;5038997;28;20270;-67
2022/08/11 00:23:25;;;;;;;388.77;225.50;;;;;;;;;;5042111;28;20238;-67
2022/08/11 00:25:52;;;;;;;418.60;232.80;;;;;;;;;;5040083;28;20215;-67
2022/08/11 00:28:27;;;;;;;378.97;215.60;;;;;;;;;;5044132;28;20624;-67
2022/08/11 00:30:53;;;;;;;408.33;233.33;;;;;;;;;;5043499;28;20207;-67
2022/08/11 00:33:25;;;;;;;401.10;229.73;;;;;;;;;;5020639;28;20271;-68
2022/08/11 00:35:56;;;;;;;458.13;263.73;;;;;;;;;;5040758;28;20293;-67
2022/08/11 00:38:24;;;;;;;421.50;244.47;;;;;;;;;;5039033;28;20228;-67
2022/08/11 00:40:56;;;;;;;411.53;237.23;;;;;;;;;;5039074;28;20767;-67
2022/08/11 00:43:27;;;;;;;413.80;233.13;;;;;;;;;;5043015;28;20227;-68
2022/08/11 00:46:02;;;;;;;405.57;235.10;;;;;;;;;;5040347;28;20185;-67
2022/08/11 00:48:31;;;;;;;411.93;237.93;;;;;;;;;;5040581;28;20226;-67
2022/08/11 00:51:05;;;;;;;404.73;231.00;;;;;;;;;;5041274;28;20239;-67
2022/08/11 00:54:01;;;;;;;383.70;218.53;;;;;;;;;;5043366;28;20706;-68
2022/08/11 00:56:42;;;;;;;384.80;219.30;;;;;;;;;;5003551;28;20216;-68
2022/08/11 00:59:20;;;;;;;398.40;225.93;;;;;;;;;;5041763;28;20776;-67
2022/08/11 01:02:08;;;;;;;401.90;231.13;;;;;;;;;;5041111;28;20938;-67
2022/08/11 01:04:37;;;;;;;382.27;213.17;;;;;;;;;;5042619;28;20216;-67
2022/08/11 01:07:22;;;;;;;407.70;236.43;;;;;;;;;;5042522;28;20271;-67
2022/08/11 01:09:51;;;;;;;423.83;241.13;;;;;;;;;;5043901;28;20183;-67
2022/08/11 01:12:23;;;;;;;412.50;233.50;;;;;;;;;;5045208;28;22149;-67
2022/08/11 01:14:52;;;;;;;396.30;230.07;;;;;;;;;;5040925;28;20219;-68
2022/08/11 01:17:37;;;;;;;382.87;222.47;;;;;;;;;;5043226;28;20572;-68
2022/08/11 01:20:03;;;;;;;445.73;252.73;;;;;;;;;;5040051;28;20450;-67
2022/08/11 01:22:46;;;;;;;426.23;244.20;;;;;;;;;;5036655;28;20771;-67
2022/08/11 01:25:11;;;;;;;400.63;229.60;;;;;;;;;;5038513;28;20581;-68
2022/08/11 01:27:56;;;;;;;406.03;232.23;;;;;;;;;;5044402;28;20191;-68
2022/08/11 01:30:22;;;;;;;400.17;225.70;;;;;;;;;;5028987;28;20314;-67
2022/08/11 01:32:48;;;;;;;422.33;240.23;;;;;;;;;;5045031;28;20246;-67
2022/08/11 01:35:33;;;;;;;386.57;222.07;;;;;;;;;;5045829;28;20219;-67
2022/08/11 01:38:18;;;;;;;433.73;242.03;;;;;;;;;;5041722;28;20207;-68
2022/08/11 01:41:03;;;;;;;420.80;235.03;;;;;;;;;;5038175;28;22115;-67
2022/08/11 01:46:39;;;;;;;407.23;231.40;;;;;;;;;;5045743;28;20222;-67
2022/08/11 01:49:12;;;;;;;378.57;220.20;;;;;;;;;;5043531;28;20625;-67
2022/08/11 01:51:58;;;;;;;365.10;199.65;;;;;;;;;;5047882;28;20261;-68
2022/08/11 01:54:30;;;;;;;399.60;229.53;;;;;;;;;;5044709;28;20222;-67
2022/08/11 01:57:09;;;;;;;463.20;259.90;;;;;;;;;;5022605;28;20223;-67
2022/08/11 01:59:37;;;;;;;408.27;227.77;;;;;;;;;;5045160;28;20219;-67
2022/08/11 02:02:03;;;;;;;446.20;249.53;;;;;;;;;;5043422;28;20314;-67
2022/08/11 02:04:37;;;;;;;405.00;225.40;;;;;;;;;;5046486;28;20318;-67
2022/08/11 02:07:17;;;;;;;430.83;237.73;;;;;;;;;;5038476;28;20187;-67
2022/08/11 02:09:45;;;;;;;397.52;222.43;;;;;;;;;;5045784;28;20261;-67
2022/08/11 02:12:31;;;;;;;373.33;207.73;;;;;;;;;;5045132;28;20235;-68
2022/08/11 02:15:07;;;;;;;409.60;230.73;;;;;;;;;;5047435;28;20211;-68
2022/08/11 02:17:33;;;;;;;383.10;217.90;;;;;;;;;;5041822;28;20513;-68
2022/08/11 02:25:38;;;;;;;465.63;260.03;;;;;;;;;;5044171;28;20545;-67
2022/08/11 02:28:10;;;;;;;414.27;234.20;;;;;;;;;;5021834;28;20521;-67
2022/08/11 02:33:21;;;;;;;417.57;231.83;;;;;;;;;;5044990;28;20215;-67
2022/08/11 02:33:35;;;;;;;397.73;221.30;;;;;;;;;;5044854;28;20219;-67
2022/08/11 02:36:04;;;;;;;400.37;227.43;;;;;;;;;;5046102;28;21101;-67
2022/08/11 02:38:44;;;;;;;443.63;247.83;;;;;;;;;;5040327;28;20234;-67
2022/08/11 02:43:58;;;;;;;411.70;224.73;;;;;;;;;;5043768;28;20521;-67
2022/08/11 02:46:27;;;;;;;412.60;226.83;;;;;;;;;;5042909;28;20219;-67
2022/08/11 02:51:52;;;;;;;386.70;219.10;;;;;;;;;;5044058;28;20284;-67
2022/08/11 02:54:36;;;;;;;385.47;215.63;;;;;;;;;;5038618;28;21269;-67
2022/08/11 02:57:28;;;;;;;416.73;230.67;;;;;;;;;;5042388;28;20589;-67
2022/08/11 02:59:57;;;;;;;423.07;231.90;;;;;;;;;;5041454;28;20253;-67
2022/08/11 03:02:31;;;;;;;368.07;204.20;;;;;;;;;;5041915;28;20216;-67
2022/08/11 03:05:00;;;;;;;430.27;235.40;;;;;;;;;;5044577;28;20215;-67
2022/08/11 03:07:42;;;;;;;382.60;212.10;;;;;;;;;;5049146;28;20223;-67
2022/08/11 03:10:25;;;;;;;376.50;207.17;;;;;;;;;;5044747;28;20422;-67
2022/08/11 03:18:39;;;;;;;410.27;220.57;;;;;;;;;;5038267;28;20329;-68
2022/08/11 03:21:07;;;;;;;377.20;206.43;;;;;;;;;;5021984;28;20218;-67
2022/08/11 03:23:37;;;;;;;395.60;209.27;;;;;;;;;;5040082;28;20219;-68
2022/08/11 03:26:02;;;;;;;424.73;232.83;;;;;;;;;;5042835;28;20219;-68
2022/08/11 03:28:29;;;;;;;424.00;229.53;;;;;;;;;;5040002;28;20278;-67
2022/08/11 03:31:08;;;;;;;425.93;231.50;;;;;;;;;;5041993;28;20199;-68
2022/08/11 03:36:46;;;;;;;415.40;224.63;;;;;;;;;;5045102;28;20277;-67
2022/08/11 03:39:15;;;;;;;417.37;222.60;;;;;;;;;;5042425;28;20208;-67
2022/08/11 03:41:44;;;;;;;422.57;221.30;;;;;;;;;;5023914;28;20251;-67
2022/08/11 03:44:18;;;;;;;438.90;234.07;;;;;;;;;;5042590;28;20310;-67
2022/08/11 03:47:03;;;;;;;403.00;222.97;;;;;;;;;;5041442;28;20225;-67
2022/08/11 03:49:34;;;;;;;400.07;213.53;;;;;;;;;;5045297;28;20227;-67
2022/08/11 03:52:00;;;;;;;439.33;241.47;;;;;;;;;;5040913;28;20253;-67
2022/08/11 03:54:26;;;;;;;422.27;231.77;;;;;;;;;;5039857;28;20223;-67
2022/08/11 03:57:12;;;;;;;394.93;219.30;;;;;;;;;;5041385;28;20664;-67
2022/08/11 03:59:53;;;;;;;395.13;216.00;;;;;;;;;;5042027;28;20621;-68
2022/08/11 04:02:18;;;;;;;381.63;206.70;;;;;;;;;;5042307;28;20215;-67
2022/08/11 04:04:58;;;;;;;365.33;202.10;;;;;;;;;;5044873;28;20648;-68
2022/08/11 04:07:56;;;;;;;370.70;197.63;;;;;;;;;;5049311;28;20348;-68
2022/08/11 04:10:46;;;;;;;381.53;198.13;;;;;;;;;;5022630;28;20535;-67
2022/08/11 04:13:21;;;;;;;371.30;200.37;;;;;;;;;;5004256;28;20203;-67
2022/08/11 04:15:59;;;;;;;398.07;214.77;;;;;;;;;;5044817;28;20542;-67
2022/08/11 04:18:44;;;;;;;379.60;198.30;;;;;;;;;;5042480;28;20223;-68
2022/08/11 04:21:29;;;;;;;370.67;198.10;;;;;;;;;;5045236;28;20371;-67
2022/08/11 04:24:02;;;;;;;430.73;222.20;;;;;;;;;;5043133;28;20219;-68
2022/08/11 04:26:52;;;;;;;381.43;200.47;;;;;;;;;;5038143;28;20226;-67
2022/08/11 04:29:18;;;;;;;389.83;210.10;;;;;;;;;;5045311;28;20218;-67
2022/08/11 04:32:30;;;;;;;383.10;200.37;;;;;;;;;;5060676;28;20655;-51
2022/08/11 04:35:08;;;;;;;376.07;200.37;;;;;;;;;;5039698;28;20227;-52
2022/08/11 04:37:37;;;;;;;384.10;209.25;;;;;;;;;;5044670;28;20638;-51
2022/08/11 04:40:06;;;;;;;363.65;196.35;;;;;;;;;;5044094;28;20745;-51
2022/08/11 04:46:01;;;;;;;361.50;194.77;;;;;;;;;;5032686;28;20289;-52
2022/08/11 05:03:37;;;;;;;359.17;191.77;;;;;;;;;;5039591;28;20261;-52
2022/08/11 05:06:26;;;;;;;365.48;199.80;;;;;;;;;;5039277;28;20226;-52
2022/08/11 05:08:52;;;;;;;347.33;189.55;;;;;;;;;;5044133;28;20797;-51
2022/08/11 05:11:35;;;;;;;366.38;196.40;;;;;;;;;;5029032;28;20244;-51
2022/08/11 05:36:48;;;;;;;402.40;224.93;;;;;;;;;;5007417;28;20576;-54
2022/08/11 05:58:41;;;;;;;412.02;227.43;;;;;;;;;;4985409;28;20347;-53
2022/08/11 06:01:07;;;;;;;380.60;209.77;;;;;;;;;;4999036;28;20266;-52
2022/08/11 06:06:19;;;;;;;468.27;273.65;;;;;;;;;;4984000;28;20532;-52
2022/08/11 06:08:45;;;;;;;390.58;218.02;;;;;;;;;;4985967;28;20213;-53
2022/08/11 06:11:12;;;;;;;443.13;241.38;;;;;;;;;;4984253;28;20220;-52
2022/08/11 06:13:44;;;;;;;373.75;210.50;;;;;;;;;;4992029;28;20239;-53
2022/08/11 06:16:11;;;;;;;388.00;222.50;;;;;;;;;;4990643;28;20282;-52
2022/08/11 06:18:37;;;;;;;450.73;244.63;;;;;;;;;;4982472;28;20217;-52
2022/08/11 06:21:08;;;;;;;382.98;215.45;;;;;;;;;;4986609;28;20229;-52
2022/08/11 06:23:35;;;;;;;390.50;217.27;;;;;;;;;;4988576;28;20871;-52
2022/08/11 06:26:01;;;;;;;379.75;218.65;;;;;;;;;;4987061;28;20848;-52
2022/08/11 06:28:35;;;;;;;418.15;229.77;;;;;;;;;;4991439;28;20217;-52
2022/08/11 06:31:02;;;;;;;388.13;221.07;;;;;;;;;;4987136;28;20223;-53
2022/08/11 06:33:42;;;;;;;416.88;235.80;;;;;;;;;;4983398;28;21154;-52
2022/08/11 06:36:11;;;;;;;401.92;229.23;;;;;;;;;;4987957;28;20285;-53
2022/08/11 06:38:37;;;;;;;410.90;244.05;;;;;;;;;;4986453;28;20217;-53
2022/08/11 06:44:06;;;;;;;414.55;236.80;;;;;;;;;;4985298;28;20248;-53
2022/08/11 06:46:37;;;;;;;384.80;219.77;;;;;;;;;;4989409;28;20233;-53
2022/08/11 06:52:01;;;;;;;386.25;222.00;;;;;;;;;;5002500;28;20244;-54
2022/08/11 06:54:30;;;;;;;398.77;231.80;;;;;;;;;;5003298;28;20262;-54
2022/08/11 07:02:32;;;;;;;381.00;228.27;;;;;;;;;;5011862;28;20253;-54
2022/08/11 07:05:01;;;;;;;374.77;225.88;;;;;;;;;;5008385;28;20266;-54
2022/08/11 07:16:26;;;;;;;401.40;239.00;;;;;;;;;;5007696;28;20250;-53
2022/08/11 07:30:05;;;;;;;373.70;226.77;;;;;;;;;;5010608;28;20239;-54
2022/08/11 07:32:35;;;;;;;418.15;251.10;;;;;;;;;;5011173;28;20373;-54
2022/08/11 07:35:08;;;;;;;417.90;252.65;;;;;;;;;;5008001;28;20216;-50
2022/08/11 07:37:35;;;;;;;399.77;252.05;;;;;;;;;;5008081;28;20308;-51
2022/08/11 07:40:03;;;;;;;383.90;240.02;;;;;;;;;;5006638;28;20191;-52
2022/08/11 07:42:30;;;;;;;422.13;257.38;;;;;;;;;;5004662;28;20197;-51
2022/08/11 07:53:13;;;;;;;379.25;242.07;;;;;;;;;;5006587;28;20588;-51
2022/08/11 07:55:39;;;;;;;438.55;277.60;;;;;;;;;;5010296;28;20251;-51
2022/08/11 08:20:12;;;;;;;413.30;263.67;;;;;;;;;;4984424;28;20254;-55
2022/08/11 08:22:39;;;;;;;373.88;245.68;;;;;;;;;;4984313;28;20324;-53
2022/08/11 08:25:05;;;;;;;364.30;252.48;;;;;;;;;;4985221;28;20188;-54
2022/08/11 08:27:32;;;;;;;541.72;321.27;;;;;;;;;;4981844;28;20535;-55
2022/08/11 08:32:43;;;;;;;438.55;287.75;;;;;;;;;;4980477;28;20228;-55
2022/08/11 08:35:12;;;;;;;443.70;270.30;;;;;;;;;;4983222;28;20268;-56
2022/08/11 08:37:38;;;;;;;391.05;246.40;;;;;;;;;;4988340;28;20260;-53
2022/08/11 08:40:08;;;;;;;403.70;252.30;;;;;;;;;;4979575;28;20550;-56
2022/08/11 08:42:37;;;;;;;479.23;294.55;;;;;;;;;;4974397;28;20286;-55
2022/08/11 08:45:07;;;;;;;376.80;243.57;;;;;;;;;;4992444;28;20596;-54
2022/08/11 08:47:42;;;;;;;475.23;298.30;;;;;;;;;;4985363;28;23017;-54
2022/08/11 08:50:10;;;;;;;385.65;253.77;;;;;;;;;;4991053;28;20224;-53
2022/08/11 08:52:39;;;;;;;397.52;258.58;;;;;;;;;;4981954;28;20228;-55
2022/08/11 08:55:06;;;;;;;408.33;271.92;;;;;;;;;;4990606;28;20527;-53
2022/08/11 08:57:33;;;;;;;434.83;285.45;;;;;;;;;;4983879;28;22878;-54
2022/08/11 08:59:59;;;;;;;482.42;309.02;;;;;;;;;;4977781;28;20224;-54
2022/08/11 09:02:26;;;;;;;505.58;324.60;;;;;;;;;;4971414;28;20286;-53
2022/08/11 09:04:52;;;;;;;358.05;245.85;;;;;;;;;;4977421;28;20297;-53
2022/08/11 09:07:20;;;;;;;423.10;281.40;;;;;;;;;;4983971;28;20701;-53
2022/08/11 09:09:50;;;;;;;427.52;285.20;;;;;;;;;;4980765;28;20197;-53
2022/08/11 09:12:18;;;;;;;383.33;264.10;;;;;;;;;;4981400;28;20228;-53
2022/08/11 09:15:02;;;;;;;503.33;335.58;;;;;;;;;;4976973;28;20224;-53
2022/08/11 09:17:29;;;;;;;440.40;283.67;;;;;;;;;;4988407;28;20597;-55
2022/08/11 09:20:09;;;;;;;375.90;256.95;;;;;;;;;;4990908;28;20353;-53
2022/08/11 09:28:10;;;;;;;404.98;275.10;;;;;;;;;;4998034;28;20247;-56
2022/08/11 09:30:37;;;;;;;383.30;261.00;;;;;;;;;;4995151;28;20243;-54
2022/08/11 09:33:04;;;;;;;388.02;278.13;;;;;;;;;;4995294;28;20315;-53
2022/08/11 09:35:32;;;;;;;423.70;290.17;;;;;;;;;;4992679;28;20562;-53
2022/08/11 09:40:47;;;;;;;396.42;270.40;;;;;;;;;;4983058;28;20243;-52
2022/08/11 09:46:21;;;;;;;409.83;279.13;;;;;;;;;;4992470;28;20184;-53
2022/08/11 09:48:47;;;;;;;409.63;282.83;;;;;;;;;;4989527;28;20276;-54
2022/08/11 09:51:14;;;;;;;407.52;278.20;;;;;;;;;;4984945;28;20236;-54
2022/08/11 09:53:42;;;;;;;387.73;266.98;;;;;;;;;;4992352;28;20222;-53
2022/08/11 09:58:58;;;;;;;361.13;258.63;;;;;;;;;;4993936;28;20227;-52
2022/08/11 10:01:27;;;;;;;402.10;286.25;;;;;;;;;;4998469;28;20233;-53
2022/08/11 10:03:59;;;;;;;385.88;273.38;;;;;;;;;;5001110;28;20268;-53
2022/08/11 10:09:11;;;;;;;378.88;270.98;;;;;;;;;;4988895;28;20351;-54
2022/08/11 10:11:38;;;;;;;388.05;268.65;;;;;;;;;;4988161;28;20707;-54
2022/08/11 10:16:51;;;;;;;393.63;277.45;;;;;;;;;;4988493;28;20693;-54
2022/08/11 10:19:18;;;;;;;383.75;277.85;;;;;;;;;;4988572;28;20237;-54
2022/08/11 10:27:23;;;;;;;373.15;270.13;;;;;;;;;;4987022;28;20221;-54
2022/08/11 10:35:20;;;;;;;384.02;282.55;;;;;;;;;;5006082;28;20724;-53
2022/08/11 10:37:47;;;;;;;438.90;309.65;;;;;;;;;;5004811;28;20677;-54
2022/08/11 10:40:17;;;;;;;431.88;307.02;;;;;;;;;;5005110;28;20268;-53
2022/08/11 10:43:02;;;;;;;380.75;287.52;;;;;;;;;;5007862;28;20687;-53
2022/08/11 10:48:15;;;;;;;377.27;280.58;;;;;;;;;;5007634;28;20223;-55
2022/08/11 10:58:59;;;;;;;363.20;269.95;;;;;;;;;;5009494;28;20600;-54
2022/08/11 11:01:33;;;;;;;391.33;290.00;;;;;;;;;;5008377;28;20244;-53
2022/08/11 11:04:09;;;;;;;401.98;300.67;;;;;;;;;;5004823;28;20296;-54
2022/08/11 11:06:43;;;;;;;369.80;277.42;;;;;;;;;;5007118;28;20685;-53
2022/08/11 11:09:31;;;;;;;382.08;280.60;;;;;;;;;;5007103;28;20236;-55
2022/08/11 11:20:18;;;;;;;366.55;279.35;;;;;;;;;;5008443;28;20270;-55
2022/08/11 11:22:51;;;;;;;423.05;312.33;;;;;;;;;;4982789;28;20279;-53
2022/08/11 11:25:36;;;;;;;426.77;311.98;;;;;;;;;;4979563;28;20185;-52
2022/08/11 11:28:07;;;;;;;436.52;317.83;;;;;;;;;;4979781;28;20662;-54
2022/08/11 11:30:52;;;;;;;448.83;327.85;;;;;;;;;;4973584;28;20897;-51
2022/08/11 11:33:22;;;;;;;408.10;310.58;;;;;;;;;;4997201;28;20227;-53
2022/08/11 11:36:07;;;;;;;397.88;299.10;;;;;;;;;;4992087;28;20240;-51
2022/08/11 11:38:33;;;;;;;446.38;322.15;;;;;;;;;;5000675;28;20304;-52
2022/08/11 11:44:01;;;;;;;467.55;343.83;;;;;;;;;;4992718;28;20226;-55
2022/08/11 11:46:28;;;;;;;452.10;338.88;;;;;;;;;;4998271;28;20743;-49
2022/08/11 11:48:55;;;;;;;436.05;323.58;;;;;;;;;;5000418;28;20548;-49
2022/08/11 11:51:25;;;;;;;429.85;324.25;;;;;;;;;;4995441;28;20314;-49
2022/08/11 11:53:51;;;;;;;416.35;316.08;;;;;;;;;;5001791;28;20320;-49
2022/08/11 11:56:18;;;;;;;426.13;324.95;;;;;;;;;;5008835;28;20709;-48
2022/08/11 12:01:30;;;;;;;426.52;321.95;;;;;;;;;;5003650;28;20259;-49
2022/08/11 12:03:57;;;;;;;420.45;319.15;;;;;;;;;;5006901;28;20211;-48
2022/08/11 12:06:24;;;;;;;434.88;331.60;;;;;;;;;;5004721;28;20531;-49
2022/08/11 12:08:51;;;;;;;432.58;328.13;;;;;;;;;;5006454;28;20289;-48
2022/08/11 12:14:04;;;;;;;444.73;336.55;;;;;;;;;;5006886;28;20829;-49
2022/08/11 12:16:31;;;;;;;444.90;337.42;;;;;;;;;;5004826;28;20212;-49
2022/08/11 12:18:59;;;;;;;435.77;338.38;;;;;;;;;;5002025;28;20187;-50
2022/08/11 12:21:26;;;;;;;455.55;343.40;;;;;;;;;;5002128;28;20339;-53
2022/08/11 12:29:14;;;;;;;473.77;359.77;;;;;;;;;;5000132;28;20713;-51
2022/08/11 12:31:41;;;;;;;398.80;320.13;;;;;;;;;;5005645;28;20223;-51
2022/08/11 12:34:09;;;;;;;384.42;318.42;;;;;;;;;;5003752;28;20216;-52
2022/08/11 12:36:37;;;;;;;420.45;332.80;;;;;;;;;;5006516;28;20264;-50
2022/08/11 12:39:06;;;;;;;404.15;329.42;;;;;;;;;;5009799;28;20735;-51
2022/08/11 12:47:03;;;;;;;441.05;372.23;;;;;;;;;;5012462;28;20281;-51
2022/08/11 12:52:26;;;;;;;419.33;367.40;;;;;;;;;;5007784;28;20266;-51
2022/08/11 12:54:55;;;;;;;419.38;359.95;;;;;;;;;;5005696;28;20258;-51
2022/08/11 13:05:41;;;;;;;464.85;387.85;;;;;;;;;;5009405;28;20222;-51
2022/08/11 13:08:08;;;;;;;442.33;390.67;;;;;;;;;;5010287;28;20296;-53
2022/08/11 13:13:22;;;;;;;452.95;397.00;;;;;;;;;;5006294;28;20273;-52
2022/08/11 13:15:48;;;;;;;458.80;404.65;;;;;;;;;;5010355;28;20181;-53
2022/08/11 13:18:15;;;;;;;434.65;386.98;;;;;;;;;;5006349;28;20433;-53
2022/08/11 13:20:43;;;;;;;493.95;414.80;;;;;;;;;;4993033;28;20653;-50
2022/08/11 13:23:11;;;;;;;500.10;430.33;;;;;;;;;;5001514;28;20217;-50
2022/08/11 13:25:37;;;;;;;484.77;417.40;;;;;;;;;;5000795;28;20216;-50
2022/08/11 13:28:04;;;;;;;479.98;416.35;;;;;;;;;;4994428;28;20200;-50
2022/08/11 13:33:16;;;;;;;440.40;393.13;;;;;;;;;;4998675;28;20235;-50
2022/08/11 13:35:43;;;;;;;525.08;449.40;;;;;;;;;;4999349;28;20221;-51
2022/08/11 13:38:12;;;;;;;453.10;404.92;;;;;;;;;;5002776;28;20808;-50
2022/08/11 13:40:38;;;;;;;485.77;434.02;;;;;;;;;;5003387;28;20216;-51
2022/08/11 13:43:05;;;;;;;497.05;442.98;;;;;;;;;;5001197;28;20203;-50
2022/08/11 13:45:31;;;;;;;492.88;439.00;;;;;;;;;;5000412;28;20256;-50
2022/08/11 13:47:58;;;;;;;483.30;431.30;;;;;;;;;;5002472;28;20213;-52
2022/08/11 13:53:13;;;;;;;522.05;445.38;;;;;;;;;;4997351;28;20719;-53
2022/08/11 13:55:40;;;;;;;524.92;442.98;;;;;;;;;;4998189;28;20216;-52
2022/08/11 13:58:08;;;;;;;466.85;415.38;;;;;;;;;;4996198;28;20200;-54
2022/08/11 14:00:34;;;;;;;499.30;438.48;;;;;;;;;;4999417;28;20709;-53
2022/08/11 14:03:01;;;;;;;494.55;437.23;;;;;;;;;;4993909;28;20652;-54
2022/08/11 14:05:28;;;;;;;462.92;412.30;;;;;;;;;;4999548;28;20251;-53
2022/08/11 14:08:01;;;;;;;463.20;414.15;;;;;;;;;;4997144;28;20220;-52
2022/08/11 14:10:29;;;;;;;489.20;435.92;;;;;;;;;;4999384;28;20227;-51
2022/08/11 14:15:45;;;;;;;515.42;459.85;;;;;;;;;;4993953;28;20236;-53
2022/08/11 14:18:16;;;;;;;512.60;458.80;;;;;;;;;;4992802;28;20979;-52
2022/08/11 14:23:47;;;;;;;553.63;496.13;;;;;;;;;;4993524;28;20653;-55
2022/08/11 14:26:27;;;;;;;512.90;463.88;;;;;;;;;;4997196;28;20219;-52
2022/08/11 14:28:56;;;;;;;534.63;481.92;;;;;;;;;;5004794;28;20378;-51
2022/08/11 14:31:24;;;;;;;512.10;464.10;;;;;;;;;;4997474;28;20958;-51
2022/08/11 14:33:52;;;;;;;564.10;511.90;;;;;;;;;;5002655;28;20204;-55
2022/08/11 14:36:18;;;;;;;579.30;527.08;;;;;;;;;;5004043;28;20771;-55
2022/08/11 14:38:45;;;;;;;568.22;520.67;;;;;;;;;;4998595;28;20323;-52
2022/08/11 14:49:27;;;;;;;593.67;545.08;;;;;;;;;;5005080;28;20768;-54
2022/08/11 14:51:53;;;;;;;603.85;556.08;;;;;;;;;;5005771;28;20204;-53
2022/08/11 14:57:06;;;;;;;631.22;578.47;;;;;;;;;;5004712;28;20219;-52
2022/08/11 14:59:33;;;;;;;608.25;560.25;;;;;;;;;;5005889;28;20327;-55
2022/08/11 15:04:45;;;;;;;623.20;573.80;;;;;;;;;;5010097;28;20269;-54
2022/08/11 15:07:12;;;;;;;599.63;552.88;;;;;;;;;;5009181;28;20206;-55
2022/08/11 15:09:42;;;;;;;637.22;585.40;;;;;;;;;;5004056;28;20511;-53
2022/08/11 15:12:15;;;;;;;587.92;543.17;;;;;;;;;;5010851;28;20385;-53
2022/08/11 15:17:25;;;;;;;602.30;554.85;;;;;;;;;;5013955;28;20336;-53
2022/08/11 15:25:22;;;;;;;615.17;566.58;;;;;;;;;;5009983;28;20262;-53
2022/08/11 15:38:59;;;;;;;605.38;555.78;;;;;;;;;;5009517;28;20219;-54
2022/08/11 15:47:02;;;;;;;598.42;550.75;;;;;;;;;;5008325;28;20239;-53
2022/08/11 15:49:33;;;;;;;610.00;561.60;;;;;;;;;;5014266;28;20223;-54
2022/08/11 15:52:17;;;;;;;625.88;576.65;;;;;;;;;;5015401;28;20375;-53
2022/08/11 15:54:45;;;;;;;623.13;573.67;;;;;;;;;;5009038;28;20655;-53
2022/08/11 16:05:16;;;;;;;591.90;543.33;;;;;;;;;;5018050;28;20233;-55
2022/08/11 16:07:47;;;;;;;609.28;560.45;;;;;;;;;;5013490;28;20307;-54
2022/08/11 16:10:20;;;;;;;615.40;566.25;;;;;;;;;;5009674;28;20196;-54
2022/08/11 16:18:19;;;;;;;621.67;571.40;;;;;;;;;;5006660;28;20243;-53
2022/08/11 16:20:46;;;;;;;597.97;550.20;;;;;;;;;;5005568;28;20212;-54
2022/08/11 16:23:14;;;;;;;587.30;539.17;;;;;;;;;;5015555;28;20311;-53
2022/08/11 16:25:40;;;;;;;602.53;552.25;;;;;;;;;;5013687;28;20219;-53
2022/08/11 16:28:06;;;;;;;575.45;525.78;;;;;;;;;;5014503;28;20587;-54
2022/08/11 16:30:36;;;;;;;561.55;513.38;;;;;;;;;;5011420;28;20680;-52
2022/08/11 16:33:03;;;;;;;566.78;517.17;;;;;;;;;;5009807;28;20230;-54
2022/08/11 16:38:35;;;;;;;557.17;505.45;;;;;;;;;;5000660;28;20672;-52
2022/08/11 16:47:02;;;;;;;560.08;509.77;;;;;;;;;;5001822;28;20266;-55
2022/08/11 16:49:39;;;;;;;552.80;501.00;;;;;;;;;;4990204;28;20322;-51
2022/08/11 16:52:10;;;;;;;527.50;480.10;;;;;;;;;;5001478;28;20419;-52
2022/08/11 16:54:37;;;;;;;549.63;497.45;;;;;;;;;;4993614;28;20230;-54
2022/08/11 16:59:51;;;;;;;536.10;481.90;;;;;;;;;;4995505;28;20306;-51
2022/08/11 17:13:36;;;;;;;560.45;499.48;;;;;;;;;;4997754;28;20660;-53
2022/08/11 17:16:07;;;;;;;498.17;449.45;;;;;;;;;;5003132;28;20675;-53
2022/08/11 17:18:51;;;;;;;495.58;445.67;;;;;;;;;;5002481;28;20656;-51
2022/08/11 17:21:22;;;;;;;506.08;453.23;;;;;;;;;;4992440;28;20237;-52
2022/08/11 17:23:59;;;;;;;477.17;429.92;;;;;;;;;;5001026;28;20660;-51
2022/08/11 17:26:56;;;;;;;484.90;436.92;;;;;;;;;;5010558;28;20664;-52
2022/08/11 17:29:28;;;;;;;497.85;445.45;;;;;;;;;;5006064;28;20299;-50
2022/08/11 17:37:37;;;;;;;479.40;430.75;;;;;;;;;;5003342;28;20251;-51
2022/08/11 17:40:05;;;;;;;471.52;423.83;;;;;;;;;;5004229;28;20229;-51
2022/08/11 17:50:51;;;;;;;454.35;403.67;;;;;;;;;;5003108;28;20271;-53
2022/08/11 18:01:36;;;;;;;427.25;376.73;;;;;;;;;;5007543;28;20277;-54
2022/08/11 18:04:04;;;;;;;407.88;361.80;;;;;;;;;;5009780;28;20225;-51
2022/08/11 18:06:31;;;;;;;435.23;375.40;;;;;;;;;;5006267;28;20176;-51
